Time;durP1;ratioP1;P1;durP2;ratioP2;P2;SDS_P1;SDS_P2;PMS_P1;PMS_P2;Temp;Humidity;BMP_temperature;BMP_pressure;BME280_temperature;BME280_humidity;BME280_pressure;Samples;Min_cycle;Max_cycle;Signal;HPM_P1;HPM_P2
2022/04/06 00:00:08;;;;;;;4.47;4.13;;;9.10;99.90;;;;;;7373424;19;20340;-69
2022/04/06 00:02:35;;;;;;;4.20;3.90;;;9.10;99.90;;;;;;7372551;19;20313;-69
2022/04/06 00:05:00;;;;;;;4.28;3.88;;;9.10;99.90;;;;;;7370680;19;20345;-68
2022/04/06 00:07:27;;;;;;;4.45;4.05;;;9.10;99.90;;;;;;7356608;19;20350;-69
2022/04/06 00:09:52;;;;;;;4.43;4.10;;;9.10;99.90;;;;;;7354923;19;20333;-69
2022/04/06 00:12:18;;;;;;;5.03;4.53;;;9.10;99.90;;;;;;7366821;19;20332;-68
2022/04/06 00:14:44;;;;;;;4.00;3.70;;;9.10;99.90;;;;;;7383463;19;20324;-68
2022/04/06 00:17:10;;;;;;;4.45;4.05;;;9.00;99.90;;;;;;7377587;19;20352;-68
2022/04/06 00:19:36;;;;;;;4.43;4.03;;;9.00;99.90;;;;;;7379139;19;20419;-69
2022/04/06 00:22:03;;;;;;;4.75;4.35;;;9.00;99.90;;;;;;7381203;19;20408;-68
2022/04/06 00:24:29;;;;;;;5.30;4.88;;;9.00;99.90;;;;;;7383476;19;20329;-67
2022/04/06 00:26:54;;;;;;;5.17;4.77;;;9.00;99.90;;;;;;7381821;19;20357;-68
2022/04/06 00:29:20;;;;;;;4.22;3.92;;;9.00;99.90;;;;;;7384146;19;21312;-68
2022/04/06 00:31:46;;;;;;;4.80;4.40;;;8.90;99.90;;;;;;7380198;19;20341;-68
2022/04/06 00:34:11;;;;;;;5.15;4.72;;;8.90;99.90;;;;;;7379217;19;20321;-68
2022/04/06 00:36:37;;;;;;;4.87;4.47;;;8.90;99.90;;;;;;7386728;19;20336;-67
2022/04/06 00:39:03;;;;;;;4.90;4.50;;;8.90;99.90;;;;;;7383112;19;20349;-67
2022/04/06 00:41:28;;;;;;;5.13;4.70;;;8.90;99.90;;;;;;7380988;19;20454;-68
2022/04/06 00:44:09;;;;;;;5.10;4.60;;;8.90;99.90;;;;;;7382558;19;20345;-68
2022/04/06 00:46:35;;;;;;;4.77;4.37;;;9.00;99.90;;;;;;7382696;19;20368;-68
2022/04/06 00:49:00;;;;;;;5.00;4.60;;;9.00;99.90;;;;;;7380384;19;20410;-69
2022/04/06 00:51:26;;;;;;;5.15;4.72;;;9.00;99.90;;;;;;7380435;19;20703;-69
2022/04/06 00:53:52;;;;;;;4.87;4.47;;;9.00;99.90;;;;;;7384151;19;20791;-68
2022/04/06 00:56:18;;;;;;;4.73;4.33;;;9.00;99.90;;;;;;7381885;19;20328;-68
2022/04/06 00:58:43;;;;;;;5.07;4.68;;;9.00;99.90;;;;;;7384127;19;20992;-67
2022/04/06 01:01:09;;;;;;;4.82;4.40;;;9.00;99.90;;;;;;7378584;19;20341;-67
2022/04/06 01:03:34;;;;;;;4.93;4.53;;;8.90;99.90;;;;;;7384058;19;21146;-67
2022/04/06 01:06:00;;;;;;;4.88;4.45;;;8.90;99.90;;;;;;7382052;19;20311;-68
2022/04/06 01:08:26;;;;;;;5.13;4.63;;;9.00;99.90;;;;;;7386942;19;20309;-69
2022/04/06 01:10:51;;;;;;;4.57;4.20;;;9.00;99.90;;;;;;7380971;19;20317;-68
2022/04/06 01:13:17;;;;;;;4.87;4.47;;;8.90;99.90;;;;;;7382197;19;20412;-68
2022/04/06 01:15:43;;;;;;;4.88;4.47;;;8.90;99.90;;;;;;7379660;19;21440;-68
2022/04/06 01:18:08;;;;;;;5.33;4.83;;;8.90;99.90;;;;;;7382774;19;20309;-67
2022/04/06 01:20:36;;;;;;;4.95;4.55;;;8.90;99.90;;;;;;7375578;19;20342;-68
2022/04/06 01:23:03;;;;;;;5.15;4.68;;;8.90;99.90;;;;;;7377776;19;20341;-68
2022/04/06 01:25:29;;;;;;;5.10;4.60;;;8.90;99.90;;;;;;7382049;19;20916;-67
2022/04/06 01:27:54;;;;;;;5.00;4.55;;;8.90;99.90;;;;;;7380948;19;20321;-68
2022/04/06 01:30:20;;;;;;;5.10;4.70;;;8.90;99.90;;;;;;7375886;19;20356;-67
2022/04/06 01:32:46;;;;;;;5.95;5.45;;;8.90;99.90;;;;;;7377437;19;20404;-67
2022/04/06 01:35:11;;;;;;;5.82;5.32;;;9.00;99.90;;;;;;7378578;19;20317;-68
2022/04/06 01:37:37;;;;;;;5.40;5.00;;;8.90;99.90;;;;;;7380080;19;20328;-68
2022/04/06 01:40:04;;;;;;;5.68;5.10;;;9.00;99.90;;;;;;7384074;19;20866;-68
2022/04/06 01:42:30;;;;;;;5.68;5.18;;;9.00;99.90;;;;;;7379459;19;20648;-68
2022/04/06 01:44:56;;;;;;;5.70;5.20;;;8.90;99.90;;;;;;7381790;19;20340;-68
2022/04/06 01:47:21;;;;;;;5.50;5.00;;;8.90;99.90;;;;;;7380479;19;20334;-68
2022/04/06 01:52:32;;;;;;;5.70;5.20;;;8.90;99.90;;;;;;7376478;19;20311;-68
2022/04/06 01:55:02;;;;;;;5.97;5.47;;;9.00;99.90;;;;;;7378913;19;20448;-68
2022/04/06 01:57:28;;;;;;;6.37;5.40;;;8.90;99.90;;;;;;7380142;19;20627;-68
2022/04/06 01:59:54;;;;;;;6.10;5.47;;;9.00;99.90;;;;;;7375468;19;20344;-68
2022/04/06 02:02:21;;;;;;;5.83;5.33;;;9.00;99.90;;;;;;7375273;19;20664;-67
2022/04/06 02:04:46;;;;;;;6.00;5.40;;;9.00;99.90;;;;;;7377873;19;20720;-68
2022/04/06 02:07:13;;;;;;;5.47;4.97;;;9.00;99.90;;;;;;7375703;19;20387;-68
2022/04/06 02:09:39;;;;;;;5.72;5.18;;;9.00;99.90;;;;;;7377221;19;20398;-68
2022/04/06 02:12:09;;;;;;;5.95;5.43;;;9.00;99.90;;;;;;7374851;19;20873;-68
2022/04/06 02:14:35;;;;;;;5.85;5.30;;;9.00;99.90;;;;;;7375484;19;20340;-68
2022/04/06 02:17:01;;;;;;;5.97;5.47;;;9.00;99.90;;;;;;7379019;19;20343;-68
2022/04/06 02:19:26;;;;;;;5.78;5.18;;;9.00;99.90;;;;;;7378572;19;20709;-67
2022/04/06 02:21:55;;;;;;;5.78;5.28;;;9.00;99.90;;;;;;7364451;19;20332;-68
2022/04/06 02:24:21;;;;;;;5.82;5.25;;;9.00;99.90;;;;;;7375797;19;20309;-68
2022/04/06 02:26:47;;;;;;;5.90;5.40;;;9.00;99.90;;;;;;7379393;19;20328;-68
2022/04/06 02:29:12;;;;;;;6.07;5.47;;;9.00;99.90;;;;;;7363650;19;20357;-69
2022/04/06 02:31:38;;;;;;;6.00;5.37;;;9.00;99.90;;;;;;7378867;19;21057;-69
2022/04/06 02:34:04;;;;;;;5.32;4.82;;;9.00;99.90;;;;;;7374397;19;20362;-68
2022/04/06 02:36:30;;;;;;;5.28;4.88;;;9.00;99.90;;;;;;7376045;19;20308;-69
2022/04/06 02:38:56;;;;;;;5.90;5.30;;;9.00;99.90;;;;;;7375360;19;20340;-69
2022/04/06 02:41:21;;;;;;;5.95;5.35;;;9.00;99.90;;;;;;7375489;19;20344;-69
2022/04/06 02:43:47;;;;;;;7.07;6.33;;;9.00;99.90;;;;;;7377292;19;20332;-68
2022/04/06 02:46:13;;;;;;;6.22;5.63;;;9.00;99.90;;;;;;7382353;19;20359;-69
2022/04/06 02:48:39;;;;;;;5.95;5.45;;;9.00;99.90;;;;;;7380072;19;20747;-68
2022/04/06 02:51:05;;;;;;;6.22;5.63;;;8.90;99.90;;;;;;7383652;19;20320;-69
2022/04/06 02:53:30;;;;;;;6.83;5.80;;;8.90;99.90;;;;;;7377515;19;20373;-69
2022/04/06 02:55:56;;;;;;;6.05;5.45;;;8.90;99.90;;;;;;7373574;19;20345;-68
2022/04/06 02:58:21;;;;;;;6.50;5.73;;;8.90;99.90;;;;;;7380772;19;20681;-69
2022/04/06 03:00:47;;;;;;;6.85;6.15;;;8.90;99.90;;;;;;7373656;19;20722;-68
2022/04/06 03:03:13;;;;;;;6.60;5.93;;;8.90;99.90;;;;;;7374945;19;21130;-68
2022/04/06 03:05:42;;;;;;;6.17;5.57;;;8.90;99.90;;;;;;7377184;19;20339;-68
2022/04/06 03:08:07;;;;;;;6.07;5.47;;;8.90;99.90;;;;;;7378679;19;20889;-68
2022/04/06 03:10:33;;;;;;;7.33;5.73;;;8.80;99.90;;;;;;7374169;19;20304;-68
2022/04/06 03:12:59;;;;;;;6.32;5.72;;;8.80;99.90;;;;;;7361497;19;20341;-69
2022/04/06 03:15:24;;;;;;;6.20;5.60;;;8.80;99.90;;;;;;7376205;19;20325;-68
2022/04/06 03:17:50;;;;;;;5.93;5.40;;;8.80;99.90;;;;;;7376227;19;21146;-68
2022/04/06 03:20:16;;;;;;;6.00;5.40;;;8.80;99.90;;;;;;7377159;19;20706;-69
2022/04/06 03:22:42;;;;;;;6.10;5.50;;;8.80;99.90;;;;;;7375918;19;20309;-69
2022/04/06 03:25:08;;;;;;;6.10;5.50;;;8.90;99.90;;;;;;7375396;19;20361;-68
2022/04/06 03:27:34;;;;;;;5.57;5.07;;;8.80;99.90;;;;;;7377239;19;20404;-68
2022/04/06 03:30:04;;;;;;;6.03;5.53;;;8.80;99.90;;;;;;7379385;19;20686;-69
2022/04/06 03:32:29;;;;;;;5.68;5.18;;;8.90;99.90;;;;;;7371658;19;21471;-68
2022/04/06 03:34:55;;;;;;;6.53;5.35;;;8.80;99.90;;;;;;7371000;19;20420;-68
2022/04/06 03:37:21;;;;;;;5.87;5.23;;;8.80;99.90;;;;;;7374556;19;20697;-69
2022/04/06 03:39:46;;;;;;;6.13;5.55;;;8.80;99.90;;;;;;7376109;19;20340;-68
2022/04/06 03:42:12;;;;;;;6.60;5.90;;;8.80;99.90;;;;;;7373581;19;20344;-68
2022/04/06 03:44:37;;;;;;;6.30;5.70;;;8.80;99.90;;;;;;7374127;19;20317;-68
2022/04/06 03:47:03;;;;;;;6.00;5.43;;;8.80;99.90;;;;;;7380952;19;20370;-69
2022/04/06 03:49:29;;;;;;;6.50;5.57;;;8.80;99.90;;;;;;7381398;19;22200;-68
2022/04/06 03:51:55;;;;;;;5.80;5.30;;;8.80;99.90;;;;;;7380254;19;20341;-67
2022/04/06 03:54:20;;;;;;;5.87;5.33;;;8.70;99.90;;;;;;7384870;19;20324;-68
2022/04/06 03:56:46;;;;;;;6.00;5.50;;;8.80;99.90;;;;;;7380983;19;20331;-68
2022/04/06 03:59:11;;;;;;;6.53;5.93;;;8.80;99.90;;;;;;7380365;19;20346;-68
2022/04/06 04:01:37;;;;;;;5.50;5.00;;;8.80;99.90;;;;;;7379794;19;20353;-68
2022/04/06 04:04:04;;;;;;;5.87;5.37;;;8.70;99.90;;;;;;7382419;19;20380;-68
2022/04/06 04:06:32;;;;;;;5.88;5.28;;;8.80;99.90;;;;;;7378121;19;20340;-68
2022/04/06 04:08:58;;;;;;;5.85;5.35;;;8.80;99.90;;;;;;7382998;19;21006;-68
2022/04/06 04:11:24;;;;;;;5.85;5.28;;;8.80;99.90;;;;;;7380906;19;20380;-68
2022/04/06 04:13:49;;;;;;;5.97;5.37;;;8.80;99.90;;;;;;7382806;19;21189;-68
2022/04/06 04:16:15;;;;;;;6.60;5.90;;;8.80;99.90;;;;;;7363259;19;20323;-68
2022/04/06 04:18:41;;;;;;;6.47;5.87;;;8.80;99.90;;;;;;7384988;19;20327;-68
2022/04/06 04:23:51;;;;;;;5.80;5.30;;;8.80;99.90;;;;;;7381474;19;20341;-68
2022/04/06 04:26:17;;;;;;;6.60;6.00;;;8.90;99.90;;;;;;7381891;19;20329;-67
2022/04/06 04:28:42;;;;;;;6.00;5.40;;;8.80;99.90;;;;;;7382798;19;20384;-68
2022/04/06 04:31:08;;;;;;;7.63;5.70;;;8.80;99.90;;;;;;7374865;19;20358;-68
2022/04/06 04:33:34;;;;;;;6.30;5.67;;;8.80;99.90;;;;;;7381782;19;20317;-69
2022/04/06 04:35:59;;;;;;;5.65;5.15;;;8.80;99.90;;;;;;7384429;19;20275;-68
2022/04/06 04:38:25;;;;;;;6.73;5.87;;;8.80;99.90;;;;;;7383449;19;20361;-67
2022/04/06 04:40:51;;;;;;;7.65;6.25;;;8.80;99.90;;;;;;7383259;19;20336;-68
2022/04/06 04:43:17;;;;;;;5.88;5.28;;;8.80;99.90;;;;;;7382296;19;21068;-68
2022/04/06 04:45:42;;;;;;;6.47;5.73;;;8.80;99.90;;;;;;7381302;19;20305;-68
2022/04/06 04:48:08;;;;;;;6.25;5.35;;;8.80;99.90;;;;;;7383723;19;20342;-68
2022/04/06 04:50:34;;;;;;;6.10;5.50;;;8.80;99.90;;;;;;7379607;19;21423;-68
2022/04/06 04:52:59;;;;;;;6.22;5.63;;;8.90;99.90;;;;;;7380723;19;20349;-68
2022/04/06 04:55:25;;;;;;;5.77;5.20;;;8.80;99.90;;;;;;7383020;19;20358;-68
2022/04/06 04:57:50;;;;;;;6.22;5.60;;;8.90;99.90;;;;;;7381825;19;20366;-68
2022/04/06 05:00:16;;;;;;;6.30;5.60;;;8.80;99.90;;;;;;7380760;19;20308;-68
2022/04/06 05:02:42;;;;;;;6.07;5.47;;;8.80;99.90;;;;;;7379473;19;20341;-68
2022/04/06 05:05:09;;;;;;;7.10;5.60;;;8.80;99.90;;;;;;7378215;19;20353;-68
2022/04/06 05:07:37;;;;;;;6.65;5.60;;;8.80;99.90;;;;;;7381750;19;20392;-68
2022/04/06 05:10:09;;;;;;;6.17;5.47;;;8.90;99.90;;;;;;7384581;19;20333;-68
2022/04/06 05:12:35;;;;;;;6.45;5.40;;;8.80;99.90;;;;;;7380354;19;20350;-67
2022/04/06 05:15:01;;;;;;;8.02;5.88;;;8.80;99.90;;;;;;7378841;19;20333;-68
2022/04/06 05:17:27;;;;;;;6.23;5.63;;;8.90;99.90;;;;;;7381414;19;21087;-67
2022/04/06 05:19:53;;;;;;;7.53;5.65;;;8.90;99.90;;;;;;7378691;19;20332;-68
2022/04/06 05:22:19;;;;;;;6.13;5.53;;;8.90;99.90;;;;;;7379994;19;20317;-67
2022/04/06 05:24:44;;;;;;;6.30;5.70;;;8.90;99.90;;;;;;7380498;19;20851;-68
2022/04/06 05:27:10;;;;;;;6.63;5.93;;;8.90;99.90;;;;;;7382492;19;20325;-67
2022/04/06 05:29:35;;;;;;;7.90;6.10;;;8.90;99.90;;;;;;7379694;19;20321;-67
2022/04/06 05:32:02;;;;;;;7.37;5.87;;;8.90;99.90;;;;;;7377479;19;20344;-67
2022/04/06 05:34:28;;;;;;;6.35;5.72;;;8.90;99.90;;;;;;7363328;19;20337;-68
2022/04/06 05:36:54;;;;;;;7.20;5.88;;;8.90;99.90;;;;;;7377311;19;20321;-67
2022/04/06 05:39:20;;;;;;;6.50;5.80;;;9.00;99.90;;;;;;7365604;19;20348;-67
2022/04/06 05:41:46;;;;;;;7.13;5.80;;;8.90;99.90;;;;;;7374711;19;20336;-68
2022/04/06 05:44:11;;;;;;;6.43;5.82;;;8.90;99.90;;;;;;7374971;19;21098;-67
2022/04/06 05:46:37;;;;;;;7.57;6.30;;;9.00;99.90;;;;;;7379259;19;20944;-67
2022/04/06 05:49:02;;;;;;;7.32;6.05;;;9.00;99.90;;;;;;7378883;19;20322;-67
2022/04/06 05:51:28;;;;;;;6.77;6.00;;;9.00;99.90;;;;;;7376876;19;20399;-67
2022/04/06 05:53:54;;;;;;;6.80;6.07;;;9.00;99.90;;;;;;7377294;19;22045;-68
2022/04/06 05:56:19;;;;;;;8.67;6.13;;;9.00;99.90;;;;;;7380687;19;20373;-67
2022/04/06 05:58:45;;;;;;;7.90;6.35;;;9.00;99.90;;;;;;7383132;19;20321;-68
2022/04/06 06:01:11;;;;;;;7.03;6.23;;;9.00;99.90;;;;;;7375180;19;20313;-67
2022/04/06 06:03:36;;;;;;;7.90;6.32;;;9.10;99.90;;;;;;7379259;19;20349;-68
2022/04/06 06:06:02;;;;;;;8.03;6.33;;;9.10;99.90;;;;;;7381483;19;20332;-67
2022/04/06 06:08:28;;;;;;;7.68;6.32;;;9.20;99.90;;;;;;7380550;19;20420;-67
2022/04/06 06:10:53;;;;;;;8.10;6.50;;;9.20;99.90;;;;;;7376001;19;20399;-68
2022/04/06 06:13:19;;;;;;;7.85;6.68;;;9.20;99.90;;;;;;7377350;19;20344;-68
2022/04/06 06:15:45;;;;;;;7.17;6.20;;;9.20;99.90;;;;;;7379549;19;20439;-68
2022/04/06 06:18:12;;;;;;;7.72;6.07;;;9.20;99.90;;;;;;7385626;19;21137;-68
2022/04/06 06:20:37;;;;;;;7.60;6.30;;;9.30;99.90;;;;;;7379391;19;20336;-68
2022/04/06 06:23:03;;;;;;;8.87;7.27;;;9.30;99.90;;;;;;7380681;19;21117;-68
2022/04/06 06:25:28;;;;;;;6.97;6.22;;;9.40;99.90;;;;;;7377942;19;20430;-67
2022/04/06 06:27:54;;;;;;;8.53;6.70;;;9.40;99.90;;;;;;7379930;19;20305;-68
2022/04/06 06:30:20;;;;;;;8.95;6.25;;;9.50;99.90;;;;;;7376315;19;20444;-68
2022/04/06 06:32:45;;;;;;;7.37;6.57;;;9.60;99.90;;;;;;7378974;19;20431;-67
2022/04/06 06:35:11;;;;;;;8.02;6.55;;;9.60;99.90;;;;;;7381247;19;21069;-67
2022/04/06 06:37:44;;;;;;;10.90;7.33;;;9.70;99.90;;;;;;7378810;19;21084;-67
2022/04/06 06:40:10;;;;;;;8.65;7.03;;;9.80;99.90;;;;;;7378747;19;20931;-68
2022/04/06 06:42:36;;;;;;;8.55;6.63;;;9.80;99.90;;;;;;7378272;19;20316;-67
2022/04/06 06:45:01;;;;;;;8.03;6.23;;;9.80;99.90;;;;;;7379150;19;20349;-67
2022/04/06 06:47:27;;;;;;;8.50;6.55;;;9.90;99.90;;;;;;7378245;19;20308;-67
2022/04/06 06:49:52;;;;;;;9.00;7.00;;;9.90;99.90;;;;;;7378673;19;20369;-67
2022/04/06 06:52:18;;;;;;;8.63;7.23;;;10.00;99.90;;;;;;7377108;19;20861;-67
2022/04/06 06:54:44;;;;;;;10.20;6.82;;;10.00;99.90;;;;;;7380493;19;20860;-67
2022/04/06 06:57:11;;;;;;;8.27;6.28;;;10.10;99.90;;;;;;7378119;19;20333;-68
2022/04/06 06:59:37;;;;;;;7.57;6.03;;;10.10;99.90;;;;;;7380251;19;20367;-67
2022/04/06 07:02:03;;;;;;;8.33;6.20;;;10.20;99.90;;;;;;7375291;19;20877;-67
2022/04/06 07:04:29;;;;;;;7.27;5.50;;;10.20;99.90;;;;;;7379399;19;20315;-67
2022/04/06 07:06:54;;;;;;;8.77;6.57;;;10.20;99.90;;;;;;7379227;19;20663;-67
2022/04/06 07:09:20;;;;;;;6.70;5.77;;;10.30;99.90;;;;;;7382279;19;20305;-68
2022/04/06 07:11:45;;;;;;;7.55;6.35;;;10.30;99.90;;;;;;7373042;19;20338;-68
2022/04/06 07:14:11;;;;;;;7.80;5.57;;;10.40;99.90;;;;;;7378293;19;20323;-67
2022/04/06 07:16:37;;;;;;;6.68;5.32;;;10.50;99.90;;;;;;7374463;19;20358;-68
2022/04/06 07:19:02;;;;;;;7.07;5.63;;;10.40;99.90;;;;;;7379237;19;20340;-68
2022/04/06 07:21:28;;;;;;;6.38;5.10;;;10.50;99.90;;;;;;7380361;19;20651;-68
2022/04/06 07:23:55;;;;;;;6.87;5.13;;;10.60;99.90;;;;;;7385031;19;20329;-68
2022/04/06 07:26:21;;;;;;;7.05;5.25;;;10.50;99.90;;;;;;7369997;19;21135;-68
2022/04/06 07:28:47;;;;;;;6.43;4.93;;;10.60;99.90;;;;;;7386164;19;20360;-67
2022/04/06 07:31:13;;;;;;;8.80;4.70;;;10.80;99.90;;;;;;7380254;19;20679;-68
2022/04/06 07:33:40;;;;;;;6.15;4.30;;;10.80;99.90;;;;;;7380449;19;20341;-68
2022/04/06 07:36:06;;;;;;;6.20;4.43;;;10.90;99.90;;;;;;7379107;19;20329;-67
2022/04/06 07:38:32;;;;;;;6.47;4.40;;;10.90;99.90;;;;;;7379999;19;20311;-68
2022/04/06 07:40:57;;;;;;;4.97;4.13;;;11.00;99.90;;;;;;7378993;19;20865;-69
2022/04/06 07:43:23;;;;;;;5.65;3.80;;;10.90;99.90;;;;;;7379886;19;20778;-69
2022/04/06 07:45:49;;;;;;;4.80;4.10;;;10.80;99.90;;;;;;7381705;19;20311;-68
2022/04/06 07:48:15;;;;;;;5.43;4.47;;;10.90;99.90;;;;;;7385480;19;21098;-68
2022/04/06 07:50:41;;;;;;;4.57;3.90;;;10.90;99.90;;;;;;7381663;19;20333;-69
2022/04/06 07:53:07;;;;;;;5.95;4.28;;;11.00;99.90;;;;;;7381796;19;20391;-69
2022/04/06 07:55:33;;;;;;;4.78;4.28;;;11.00;99.90;;;;;;7388180;19;20304;-68
2022/04/06 07:57:59;;;;;;;5.15;4.53;;;11.10;99.90;;;;;;7389417;19;20332;-69
2022/04/06 08:00:25;;;;;;;6.30;4.65;;;11.10;99.90;;;;;;7383874;19;20361;-69
2022/04/06 08:02:50;;;;;;;6.50;4.47;;;11.10;99.90;;;;;;7383873;19;20984;-68
2022/04/06 08:05:16;;;;;;;10.07;4.60;;;11.10;99.90;;;;;;7382174;19;20349;-69
2022/04/06 08:07:45;;;;;;;5.60;4.32;;;11.10;99.90;;;;;;7383007;19;20339;-69
2022/04/06 08:10:15;;;;;;;7.53;4.63;;;11.10;99.90;;;;;;7383095;19;20348;-68
2022/04/06 08:12:41;;;;;;;5.32;4.40;;;11.20;99.90;;;;;;7382839;19;20731;-69
2022/04/06 08:15:07;;;;;;;7.15;4.63;;;11.20;99.90;;;;;;7385087;19;21202;-70
2022/04/06 08:17:37;;;;;;;6.20;4.82;;;11.20;99.90;;;;;;7382685;19;20331;-68
2022/04/06 08:20:04;;;;;;;8.20;5.20;;;11.30;99.90;;;;;;7380355;19;20356;-68
2022/04/06 08:22:30;;;;;;;6.78;4.78;;;11.30;99.90;;;;;;7383791;19;20342;-68
2022/04/06 08:24:56;;;;;;;5.40;4.75;;;11.30;99.90;;;;;;7384100;19;20313;-68
2022/04/06 08:27:22;;;;;;;5.97;4.60;;;11.30;99.90;;;;;;7383531;19;20876;-69
2022/04/06 08:29:47;;;;;;;6.47;4.60;;;11.30;99.90;;;;;;7382669;19;20324;-68
2022/04/06 08:32:14;;;;;;;5.73;5.07;;;11.40;99.90;;;;;;7378531;19;20361;-68
2022/04/06 08:34:39;;;;;;;7.00;5.30;;;11.50;99.90;;;;;;7384666;19;20343;-68
2022/04/06 08:37:05;;;;;;;7.63;5.17;;;11.50;99.90;;;;;;7385204;19;20297;-69
2022/04/06 08:39:31;;;;;;;6.80;4.95;;;11.60;99.90;;;;;;7381643;19;20909;-69
2022/04/06 08:41:56;;;;;;;7.07;5.17;;;11.60;99.90;;;;;;7379873;19;20344;-69
2022/04/06 08:44:23;;;;;;;5.77;4.97;;;11.60;99.90;;;;;;7383852;19;20305;-69
2022/04/06 08:46:50;;;;;;;8.25;4.82;;;11.60;99.90;;;;;;7381393;19;20335;-69
2022/04/06 08:49:15;;;;;;;9.10;5.20;;;11.60;99.90;;;;;;7383757;19;20348;-68
2022/04/06 08:51:41;;;;;;;5.43;4.77;;;11.70;99.90;;;;;;7379064;19;20323;-69
2022/04/06 08:54:06;;;;;;;5.70;4.53;;;11.70;99.90;;;;;;7381216;19;20383;-68
2022/04/06 08:56:32;;;;;;;7.40;4.47;;;11.80;99.90;;;;;;7389778;19;20324;-68
2022/04/06 08:59:00;;;;;;;5.90;5.17;;;11.80;99.90;;;;;;7385852;19;20312;-68
2022/04/06 09:01:27;;;;;;;5.78;4.90;;;11.70;99.90;;;;;;7377889;19;20364;-68
2022/04/06 09:03:53;;;;;;;4.90;4.40;;;11.70;99.90;;;;;;7383557;19;20342;-70
2022/04/06 09:06:19;;;;;;;5.07;4.20;;;11.70;99.90;;;;;;7380442;19;20885;-69
2022/04/06 09:08:48;;;;;;;5.45;4.60;;;11.60;99.90;;;;;;7382838;19;20320;-69
2022/04/06 09:11:22;;;;;;;5.47;4.40;;;11.70;99.90;;;;;;7379895;19;20319;-68
2022/04/06 09:13:56;;;;;;;5.30;4.22;;;11.80;99.90;;;;;;7379434;19;20316;-68
2022/04/06 09:16:22;;;;;;;4.85;4.32;;;11.90;99.90;;;;;;7383107;19;20319;-69
2022/04/06 09:18:48;;;;;;;6.13;4.72;;;12.10;99.90;;;;;;7383603;19;20317;-68
2022/04/06 09:21:16;;;;;;;4.57;4.00;;;12.20;99.90;;;;;;7380829;19;20338;-69
2022/04/06 09:23:41;;;;;;;9.65;4.30;;;12.20;99.90;;;;;;7380619;19;20916;-70
2022/04/06 09:26:08;;;;;;;4.55;4.10;;;12.40;99.90;;;;;;7380154;19;20348;-68
2022/04/06 09:28:41;;;;;;;5.32;4.30;;;12.50;99.90;;;;;;7382024;19;20313;-69
2022/04/06 09:31:08;;;;;;;6.20;4.63;;;12.30;99.90;;;;;;7278128;19;2004599;-68
2022/04/06 09:33:39;;;;;;;4.57;3.92;;;12.20;99.90;;;;;;7379621;19;20672;-70
2022/04/06 09:36:17;;;;;;;4.32;3.90;;;12.40;99.90;;;;;;7381527;19;20337;-69
2022/04/06 09:38:45;;;;;;;4.47;3.63;;;12.50;99.90;;;;;;7385560;19;20342;-69
2022/04/06 09:41:14;;;;;;;5.28;4.05;;;12.60;99.90;;;;;;7379876;19;20329;-70
2022/04/06 09:43:40;;;;;;;5.35;3.90;;;12.80;99.90;;;;;;7378490;19;20343;-68
2022/04/06 09:49:18;;;;;;;4.00;3.60;;;12.80;99.90;;;;;;7278992;19;2004577;-69
2022/04/06 09:51:51;;;;;;;5.20;3.95;;;12.90;99.90;;;;;;7380785;19;20663;-70
2022/04/06 09:54:17;;;;;;;4.67;3.80;;;13.10;99.90;;;;;;7380161;19;20387;-69
2022/04/06 09:56:43;;;;;;;4.15;3.55;;;13.20;99.90;;;;;;7384104;19;20347;-69
2022/04/06 09:59:09;;;;;;;3.80;3.35;;;13.20;99.90;;;;;;7384818;19;20321;-69
2022/04/06 10:01:36;;;;;;;5.10;3.60;;;13.30;99.90;;;;;;7381834;19;20362;-69
2022/04/06 10:04:07;;;;;;;4.22;3.55;;;13.30;99.90;;;;;;7379277;19;20305;-68
2022/04/06 10:06:36;;;;;;;5.57;3.33;;;13.20;99.90;;;;;;7378918;19;20316;-69
2022/04/06 10:09:06;;;;;;;4.07;3.38;;;13.10;99.90;;;;;;7380006;19;20824;-69
2022/04/06 10:11:35;;;;;;;5.35;3.50;;;13.00;99.90;;;;;;7379856;19;20331;-69
2022/04/06 10:14:04;;;;;;;4.75;3.90;;;12.90;99.90;;;;;;7375809;19;20897;-69
2022/04/06 10:16:31;;;;;;;4.65;3.20;;;13.00;99.90;;;;;;7378326;19;20317;-68
2022/04/06 10:18:57;;;;;;;6.13;3.83;;;13.10;99.90;;;;;;7379921;19;20304;-70
2022/04/06 10:21:43;;;;;;;4.28;3.55;;;13.20;99.90;;;;;;7375405;19;20405;-69
2022/04/06 10:24:29;;;;;;;3.50;3.20;;;13.20;99.90;;;;;;7378683;19;20334;-69
2022/04/06 10:27:25;;;;;;;4.20;3.47;;;13.00;99.90;;;;;;7276351;19;2004587;-69
2022/04/06 10:30:14;;;;;;;5.33;3.77;;;13.00;99.90;;;;;;7279489;19;2004352;-68
2022/04/06 10:32:41;;;;;;;5.03;3.60;;;13.00;99.90;;;;;;7175713;19;2004526;-70
2022/04/06 10:35:17;;;;;;;3.92;2.97;;;13.10;99.90;;;;;;7375072;19;20364;-68
2022/04/06 10:38:10;;;;;;;3.65;3.25;;;13.00;99.90;;;;;;7379548;19;20340;-67
2022/04/06 10:40:45;;;;;;;5.17;3.63;;;12.90;99.90;;;;;;7273993;19;2004703;-67
2022/04/06 10:43:35;;;;;;;5.10;3.70;;;12.80;99.90;;;;;;7380671;19;20337;-68
2022/04/06 10:46:01;;;;;;;4.95;3.63;;;12.80;99.90;;;;;;7378606;19;20999;-68
2022/04/06 10:48:27;;;;;;;5.55;3.75;;;12.70;99.90;;;;;;7377888;19;20400;-68
2022/04/06 10:50:53;;;;;;;6.50;3.73;;;12.90;99.90;;;;;;7378131;19;20337;-68
2022/04/06 10:53:19;;;;;;;6.00;3.27;;;12.70;99.90;;;;;;7376027;19;20727;-67
2022/04/06 10:56:03;;;;;;;4.80;3.70;;;12.70;99.90;;;;;;7380064;19;20305;-68
2022/04/06 10:58:57;;;;;;;3.95;3.42;;;12.60;99.90;;;;;;7278240;19;2004544;-68
2022/04/06 11:01:26;;;;;;;5.30;3.33;;;12.70;99.90;;;;;;7377829;19;20319;-67
2022/04/06 11:04:00;;;;;;;3.65;3.08;;;12.70;99.90;;;;;;7380385;19;21231;-68
2022/04/06 11:07:03;;;;;;;5.68;3.17;;;12.70;99.90;;;;;;7379311;19;20340;-67
2022/04/06 11:12:23;;;;;;;3.45;3.05;;;12.80;99.90;;;;;;7377688;19;20340;-67
2022/04/06 11:14:50;;;;;;;2.92;2.60;;;12.80;99.90;;;;;;7377364;19;20332;-69
2022/04/06 11:20:00;;;;;;;6.85;3.38;;;12.80;99.90;;;;;;7280138;19;2004230;-67
2022/04/06 11:22:25;;;;;;;6.78;4.32;;;12.80;99.90;;;;;;7378430;19;20298;-68
2022/04/06 11:24:51;;;;;;;4.38;3.10;;;12.80;99.90;;;;;;7377435;19;20340;-67
2022/04/06 11:27:32;;;;;;;6.30;3.67;;;12.70;99.90;;;;;;7378558;19;20766;-67
2022/04/06 11:30:05;;;;;;;4.38;3.33;;;12.60;99.90;;;;;;7377640;19;20324;-67
2022/04/06 11:32:32;;;;;;;4.35;3.17;;;12.50;99.90;;;;;;7378231;19;20317;-69
2022/04/06 11:35:08;;;;;;;4.70;3.42;;;12.30;99.90;;;;;;7378403;19;20308;-67
2022/04/06 11:37:47;;;;;;;4.07;3.17;;;12.40;99.90;;;;;;7379550;19;20351;-67
2022/04/06 11:40:20;;;;;;;5.05;3.45;;;12.40;99.90;;;;;;7378531;19;20364;-66
2022/04/06 11:42:47;;;;;;;7.10;4.95;;;12.50;99.90;;;;;;7376534;19;20332;-68
2022/04/06 11:45:13;;;;;;;5.20;3.15;;;12.60;99.90;;;;;;7378584;19;20700;-66
2022/04/06 11:47:38;;;;;;;3.23;2.93;;;12.70;99.90;;;;;;7379407;19;20309;-66
2022/04/06 11:50:10;;;;;;;4.20;3.20;;;12.70;99.90;;;;;;7377690;19;20343;-66
2022/04/06 11:52:40;;;;;;;3.80;3.08;;;12.70;99.90;;;;;;7376904;19;20337;-68
2022/04/06 11:55:07;;;;;;;3.22;2.92;;;12.60;99.90;;;;;;7374265;19;20336;-65
2022/04/06 11:57:40;;;;;;;4.57;3.08;;;12.50;99.90;;;;;;7377587;19;20369;-68
2022/04/06 12:00:08;;;;;;;4.30;2.90;;;12.50;99.90;;;;;;7378604;19;20369;-67
2022/04/06 12:02:46;;;;;;;3.92;3.20;;;12.40;99.90;;;;;;7375295;19;20320;-67
2022/04/06 12:05:12;;;;;;;4.75;3.05;;;12.40;99.90;;;;;;7376951;19;20366;-66
2022/04/06 12:07:38;;;;;;;3.47;2.78;;;12.30;99.90;;;;;;7382659;19;20704;-65
2022/04/06 12:10:04;;;;;;;6.03;3.20;;;12.20;99.90;;;;;;7380099;19;20362;-65
2022/04/06 12:12:30;;;;;;;3.60;3.05;;;12.10;99.90;;;;;;7383439;19;20340;-65
2022/04/06 12:14:56;;;;;;;3.80;2.78;;;12.10;99.90;;;;;;7384946;19;20326;-65
2022/04/06 12:17:22;;;;;;;6.90;3.10;;;12.10;99.90;;;;;;7381547;19;20337;-66
2022/04/06 12:19:47;;;;;;;3.87;3.00;;;12.20;99.90;;;;;;7385323;19;20338;-67
2022/04/06 12:22:13;;;;;;;2.80;2.60;;;12.20;99.90;;;;;;7381331;19;20304;-65
2022/04/06 12:24:40;;;;;;;3.88;2.78;;;12.20;99.90;;;;;;7384010;19;20324;-66
2022/04/06 12:27:05;;;;;;;4.05;2.92;;;12.20;99.90;;;;;;7386270;19;20337;-66
2022/04/06 12:29:32;;;;;;;3.97;3.03;;;12.20;99.90;;;;;;7384136;19;20360;-65
2022/04/06 12:31:58;;;;;;;4.95;2.92;;;12.20;99.90;;;;;;7379749;19;20344;-67
2022/04/06 12:34:34;;;;;;;5.43;4.03;;;12.30;99.90;;;;;;7386681;19;20322;-66
2022/04/06 12:37:29;;;;;;;6.47;4.00;;;12.40;99.90;;;;;;7279121;19;2004307;-65
2022/04/06 12:39:50;;;;;;;4.68;3.70;;;12.60;99.90;;;;;;7282278;19;2004349;-66
2022/04/06 12:42:16;;;;;;;3.90;2.92;;;12.90;99.90;;;;;;7383156;19;20317;-66
2022/04/06 12:44:55;;;;;;;3.23;2.87;;;13.40;99.90;;;;;;7381510;19;20377;-66
2022/04/06 12:47:23;;;;;;;3.53;2.78;;;13.80;99.90;;;;;;7384346;19;20382;-66
2022/04/06 12:49:48;;;;;;;2.40;2.20;;;13.80;99.90;;;;;;7384110;19;20384;-66
2022/04/06 12:52:15;;;;;;;3.22;2.92;;;13.80;99.90;;;;;;7384496;19;20373;-68
2022/04/06 12:54:42;;;;;;;4.95;2.83;;;13.80;99.90;;;;;;7387169;19;20325;-67
2022/04/06 12:57:17;;;;;;;3.22;2.80;;;13.80;99.90;;;;;;7383446;19;20865;-67
2022/04/06 12:59:59;;;;;;;4.85;2.75;;;13.70;99.90;;;;;;7386649;19;20816;-69
2022/04/06 13:02:28;;;;;;;4.13;2.67;;;13.60;99.90;;;;;;7381343;19;20337;-67
2022/04/06 13:04:56;;;;;;;3.63;2.70;;;13.50;99.90;;;;;;7384643;19;20316;-67